Terminal Aerodrome Forecast
Issued by NWS Grand Forks, ND

Home | Current Version | Previous Version | Graphics & Text | Print | Product List | Glossary On
Versions: 1 2 3 4 5 6 7 8 9 10 11 12 13 14 15 16 17
000
FTUS43 KFGF 192320
TAFFAR
TAF
KFAR 192320Z 2000/2024 31009KT P6SM FEW120 BKN200
     FM200600 34007KT P6SM BKN200
     FM202000 30009KT P6SM SCT150=

USA.gov is the U.S. government's official web portal to all federal, state and local government web resources and services.